LiveATC.Net - Listen to live air traffic control over the Internet!


ICAO: MHLC  IATA: LCE   Airport: Goloson International Airport
City: La Ceiba
Country: Honduras   Continent: North America  Region: Central America
MHLC METAR Weather: MHLC 151900Z 04009KT 9999 SCT028CB 32/25 Q1011 A2986 NOSIG
MHLC Flight Activity (FlightAware)

MHLC Gnd/Twr/Center
Feed Status: UP   Listeners: 0
Listen in your browser - HTML5 player (in browser, HTML5)
Click here to listen with your own player (launches your MP3 player)
MHLC Gnd/Twr/Center Audio Archives
FacilityFrequency
CENAMER123.900
CENAMER124.300
Goloson Ground121.900
Goloson Tower118.500
La Ceiba Radio128.900

NOTICE

Unauthorized use prohibited. See LiveATC.net Terms of Service


Airport/ARTCC Code
Frequency Search
(e.g., 124.400, 128.75)
Site-wide search
 


Browse LiveATC Feeds
Top 50 LiveATC Feeds
LiveATC Feed Map
Bad Weather Areas

LiveATC FAQ
Offer LiveATC feed
Contact LiveATC.net
Press Inquiries

LiveATC on iPhone
LiveATC on Android

Windows Phone
Windows 8/10

LiveATC Mobile
(Mobile browser)

ATC Audio Archives
Interesting Recordings

LiveATC Forums


Home Page
About LiveATC.net
Make a Donation
Terms of Use
Privacy Policy

Canadian Air Freqs

AIRMETs/SIGMETs

FAA Airport Status
Nat'l Airspace Status
Arrival Demand Charts


Server Software By:
Icecast.org
Liquidsoap